Terminal Aerodrome Forecast
Issued by NWS

Home | Current Version | Previous Version | Text Only | Print | Product List | Glossary On
Versions: 1 2 3 4 5 6 7 8 9 10 11 12 13 14 15 16 17 18 19 20 21 22
000
FTPA31 PHFO 051700
TAFJHM
TAF
PHJH 051740Z 0518/0618 03014G22KT P6SM VCSH SCT030 BKN045
     FM052000 04015G24KT P6SM FEW030 SCT045
     FM060600 04011KT P6SM VCSH SCT025 BKN040
      AMD NOT SKED AFT 060400=

USA.gov is the U.S. government's official web portal to all federal, state and local government web resources and services.